sensor_id;sensor_type;location;lat;lon;timestamp;pressure;altitude;pressure_sealevel;temperature;humidity
76746;BME280;65671;49.976;20.038;2023-02-28T00:01:32;99168.59;;;-1.16;72.99
76746;BME280;65671;49.976;20.038;2023-02-28T00:03:58;99164.69;;;-1.42;73.16
76746;BME280;65671;49.976;20.038;2023-02-28T00:06:24;99157.00;;;-1.44;73.45
76746;BME280;65671;49.976;20.038;2023-02-28T00:08:49;99167.19;;;-1.32;72.65
76746;BME280;65671;49.976;20.038;2023-02-28T00:11:16;99166.63;;;-1.48;74.66
76746;BME280;65671;49.976;20.038;2023-02-28T00:13:44;99173.94;;;-1.40;74.00
76746;BME280;65671;49.976;20.038;2023-02-28T00:16:16;99175.50;;;-1.39;74.06
76746;BME280;65671;49.976;20.038;2023-02-28T00:18:42;99171.06;;;-1.43;73.17
76746;BME280;65671;49.976;20.038;2023-02-28T00:21:08;99180.56;;;-1.37;72.49
76746;BME280;65671;49.976;20.038;2023-02-28T00:23:34;99189.31;;;-1.60;72.43
76746;BME280;65671;49.976;20.038;2023-02-28T00:26:00;99182.41;;;-1.61;72.45
76746;BME280;65671;49.976;20.038;2023-02-28T00:28:25;99188.69;;;-1.52;73.74
76746;BME280;65671;49.976;20.038;2023-02-28T00:30:51;99183.78;;;-1.40;73.97
76746;BME280;65671;49.976;20.038;2023-02-28T00:33:16;99184.81;;;-1.36;71.78
76746;BME280;65671;49.976;20.038;2023-02-28T00:35:42;99183.53;;;-1.44;71.31
76746;BME280;65671;49.976;20.038;2023-02-28T00:38:08;99179.31;;;-1.45;72.08
76746;BME280;65671;49.976;20.038;2023-02-28T00:40:34;99179.13;;;-1.53;73.67
76746;BME280;65671;49.976;20.038;2023-02-28T00:42:59;99188.13;;;-1.49;70.76
76746;BME280;65671;49.976;20.038;2023-02-28T00:45:25;99180.66;;;-1.47;71.08
76746;BME280;65671;49.976;20.038;2023-02-28T00:47:50;99184.00;;;-1.60;71.45
76746;BME280;65671;49.976;20.038;2023-02-28T00:50:18;99183.69;;;-1.78;71.48
76746;BME280;65671;49.976;20.038;2023-02-28T00:52:44;99180.63;;;-1.90;71.94
76746;BME280;65671;49.976;20.038;2023-02-28T00:55:09;99178.03;;;-2.00;72.24
76746;BME280;65671;49.976;20.038;2023-02-28T00:57:35;99172.63;;;-2.18;74.09
76746;BME280;65671;49.976;20.038;2023-02-28T01:00:00;99177.91;;;-2.13;73.08
76746;BME280;65671;49.976;20.038;2023-02-28T01:02:26;99181.69;;;-2.19;74.04
76746;BME280;65671;49.976;20.038;2023-02-28T01:04:52;99174.91;;;-2.31;75.54
76746;BME280;65671;49.976;20.038;2023-02-28T01:07:17;99177.81;;;-2.32;74.74
76746;BME280;65671;49.976;20.038;2023-02-28T01:09:43;99180.03;;;-2.15;74.36
76746;BME280;65671;49.976;20.038;2023-02-28T01:12:09;99179.69;;;-2.04;72.50
76746;BME280;65671;49.976;20.038;2023-02-28T01:14:35;99170.97;;;-2.09;73.74
76746;BME280;65671;49.976;20.038;2023-02-28T01:17:01;99173.84;;;-2.06;71.29
76746;BME280;65671;49.976;20.038;2023-02-28T01:19:27;99173.84;;;-2.01;71.81
76746;BME280;65671;49.976;20.038;2023-02-28T01:21:53;99182.63;;;-2.05;72.31
76746;BME280;65671;49.976;20.038;2023-02-28T01:24:19;99181.56;;;-2.04;71.90
76746;BME280;65671;49.976;20.038;2023-02-28T01:26:45;99178.78;;;-2.23;71.18
76746;BME280;65671;49.976;20.038;2023-02-28T01:29:10;99177.69;;;-2.17;70.82
76746;BME280;65671;49.976;20.038;2023-02-28T01:31:36;99171.88;;;-2.19;71.46
76746;BME280;65671;49.976;20.038;2023-02-28T01:34:01;99182.75;;;-2.20;70.09
76746;BME280;65671;49.976;20.038;2023-02-28T01:36:27;99174.78;;;-2.20;69.48
76746;BME280;65671;49.976;20.038;2023-02-28T01:38:53;99172.38;;;-2.17;70.03
76746;BME280;65671;49.976;20.038;2023-02-28T01:41:22;99174.94;;;-2.07;69.17
76746;BME280;65671;49.976;20.038;2023-02-28T01:46:14;99171.69;;;-1.99;68.26
76746;BME280;65671;49.976;20.038;2023-02-28T01:51:20;99173.84;;;-2.01;67.92
76746;BME280;65671;49.976;20.038;2023-02-28T01:53:53;99164.91;;;-2.10;68.27
76746;BME280;65671;49.976;20.038;2023-02-28T01:56:25;99165.41;;;-2.08;70.30
76746;BME280;65671;49.976;20.038;2023-02-28T01:58:54;99164.91;;;-2.15;69.26
76746;BME280;65671;49.976;20.038;2023-02-28T02:01:21;99171.03;;;-2.14;69.32
76746;BME280;65671;49.976;20.038;2023-02-28T02:03:55;99167.44;;;-2.29;69.34
76746;BME280;65671;49.976;20.038;2023-02-28T02:06:23;99168.19;;;-2.23;68.57
76746;BME280;65671;49.976;20.038;2023-02-28T02:08:50;99163.19;;;-2.58;67.15
76746;BME280;65671;49.976;20.038;2023-02-28T02:11:18;99162.47;;;-2.69;67.61
76746;BME280;65671;49.976;20.038;2023-02-28T02:14:10;99167.72;;;-2.64;67.61
76746;BME280;65671;49.976;20.038;2023-02-28T02:36:57;99163.03;;;-3.85;72.00
76746;BME280;65671;49.976;20.038;2023-02-28T02:40:00;99159.63;;;-3.96;73.28
76746;BME280;65671;49.976;20.038;2023-02-28T02:45:19;99152.75;;;-3.97;73.19
76746;BME280;65671;49.976;20.038;2023-02-28T02:47:48;99150.34;;;-3.88;73.58
76746;BME280;65671;49.976;20.038;2023-02-28T02:50:20;99145.84;;;-3.87;73.28
76746;BME280;65671;49.976;20.038;2023-02-28T02:52:53;99144.81;;;-3.91;74.55
76746;BME280;65671;49.976;20.038;2023-02-28T02:55:22;99150.06;;;-3.81;75.13
76746;BME280;65671;49.976;20.038;2023-02-28T02:57:58;99144.19;;;-3.68;74.32
76746;BME280;65671;49.976;20.038;2023-02-28T03:00:28;99151.88;;;-3.72;75.37
76746;BME280;65671;49.976;20.038;2023-02-28T03:02:57;99146.91;;;-3.88;76.29
76746;BME280;65671;49.976;20.038;2023-02-28T03:05:27;99145.84;;;-3.87;75.36
76746;BME280;65671;49.976;20.038;2023-02-28T03:07:54;99140.03;;;-3.89;75.30
76746;BME280;65671;49.976;20.038;2023-02-28T03:10:38;99155.41;;;-4.02;77.21
76746;BME280;65671;49.976;20.038;2023-02-28T03:13:32;99150.91;;;-4.01;77.47
76746;BME280;65671;49.976;20.038;2023-02-28T03:21:21;99152.97;;;-3.83;77.26
76746;BME280;65671;49.976;20.038;2023-02-28T03:26:23;99161.13;;;-3.64;76.88
76746;BME280;65671;49.976;20.038;2023-02-28T03:31:49;99162.19;;;-3.70;76.74
76746;BME280;65671;49.976;20.038;2023-02-28T03:34:29;99161.16;;;-3.74;76.98
76746;BME280;65671;49.976;20.038;2023-02-28T03:37:03;99171.75;;;-3.79;78.22
76746;BME280;65671;49.976;20.038;2023-02-28T03:39:43;99176.00;;;-3.88;78.10
76746;BME280;65671;49.976;20.038;2023-02-28T03:42:23;99172.56;;;-3.84;78.90
76746;BME280;65671;49.976;20.038;2023-02-28T03:45:11;99174.16;;;-3.98;78.41
76746;BME280;65671;49.976;20.038;2023-02-28T03:47:44;99175.25;;;-3.99;78.58
76746;BME280;65671;49.976;20.038;2023-02-28T03:50:21;99168.38;;;-4.10;78.75
76746;BME280;65671;49.976;20.038;2023-02-28T03:53:26;99182.63;;;-3.86;77.20
76746;BME280;65671;49.976;20.038;2023-02-28T03:55:59;99178.13;;;-3.85;76.87
76746;BME280;65671;49.976;20.038;2023-02-28T03:58:37;99164.09;;;-3.81;75.77
76746;BME280;65671;49.976;20.038;2023-02-28T04:01:23;99175.44;;;-3.80;75.22
76746;BME280;65671;49.976;20.038;2023-02-28T04:03:50;99179.44;;;-3.88;76.79
76746;BME280;65671;49.976;20.038;2023-02-28T04:06:20;99184.44;;;-3.71;75.65
76746;BME280;65671;49.976;20.038;2023-02-28T04:08:46;99186.00;;;-3.65;75.90
76746;BME280;65671;49.976;20.038;2023-02-28T04:11:35;99190.22;;;-3.59;75.48
76746;BME280;65671;49.976;20.038;2023-02-28T04:14:03;99184.94;;;-3.64;74.83
76746;BME280;65671;49.976;20.038;2023-02-28T04:16:30;99187.53;;;-3.54;74.65
76746;BME280;65671;49.976;20.038;2023-02-28T04:18:55;99183.59;;;-3.62;74.65
76746;BME280;65671;49.976;20.038;2023-02-28T04:21:39;99184.97;;;-3.69;75.83
76746;BME280;65671;49.976;20.038;2023-02-28T04:24:06;99196.59;;;-3.65;75.43
76746;BME280;65671;49.976;20.038;2023-02-28T04:26:33;99190.00;;;-3.73;75.74
76746;BME280;65671;49.976;20.038;2023-02-28T04:29:01;99190.78;;;-3.67;76.09
76746;BME280;65671;49.976;20.038;2023-02-28T04:31:27;99188.66;;;-3.70;76.08
76746;BME280;65671;49.976;20.038;2023-02-28T04:33:53;99190.25;;;-3.69;75.26
76746;BME280;65671;49.976;20.038;2023-02-28T04:36:19;99186.84;;;-3.80;74.83
76746;BME280;65671;49.976;20.038;2023-02-28T04:38:45;99198.75;;;-3.87;75.86
76746;BME280;65671;49.976;20.038;2023-02-28T04:41:12;99191.56;;;-3.72;75.15
76746;BME280;65671;49.976;20.038;2023-02-28T04:43:38;99186.84;;;-3.80;74.81
76746;BME280;65671;49.976;20.038;2023-02-28T04:46:05;99190.56;;;-3.86;75.47
76746;BME280;65671;49.976;20.038;2023-02-28T04:48:34;99200.09;;;-3.90;75.08
76746;BME280;65671;49.976;20.038;2023-02-28T04:51:06;99200.34;;;-3.86;75.38
76746;BME280;65671;49.976;20.038;2023-02-28T04:53:32;99196.63;;;-3.85;75.11
76746;BME280;65671;49.976;20.038;2023-02-28T04:55:58;99203.22;;;-3.73;74.03
76746;BME280;65671;49.976;20.038;2023-02-28T04:58:24;99204.81;;;-3.77;74.23
76746;BME280;65671;49.976;20.038;2023-02-28T05:00:52;99199.78;;;-3.83;74.46
76746;BME280;65671;49.976;20.038;2023-02-28T05:03:18;99205.94;;;-3.93;74.57
76746;BME280;65671;49.976;20.038;2023-02-28T05:05:44;99202.72;;;-3.95;73.63
76746;BME280;65671;49.976;20.038;2023-02-28T05:08:10;99206.44;;;-3.91;75.07
76746;BME280;65671;49.976;20.038;2023-02-28T05:10:36;99205.94;;;-4.03;74.17
76746;BME280;65671;49.976;20.038;2023-02-28T05:13:01;99201.41;;;-3.92;74.74
76746;BME280;65671;49.976;20.038;2023-02-28T05:15:27;99205.94;;;-3.93;75.42
76746;BME280;65671;49.976;20.038;2023-02-28T05:17:53;99206.19;;;-3.95;74.69
76746;BME280;65671;49.976;20.038;2023-02-28T05:20:19;99204.63;;;-4.06;75.47
76746;BME280;65671;49.976;20.038;2023-02-28T05:22:46;99213.31;;;-4.10;75.48
76746;BME280;65671;49.976;20.038;2023-02-28T05:25:14;99208.31;;;-4.27;76.54
76746;BME280;65671;49.976;20.038;2023-02-28T05:27:41;99212.03;;;-4.58;77.52
76746;BME280;65671;49.976;20.038;2023-02-28T05:30:08;99214.41;;;-4.62;78.64
76746;BME280;65671;49.976;20.038;2023-02-28T05:32:37;99204.09;;;-4.38;78.71
76746;BME280;65671;49.976;20.038;2023-02-28T05:35:04;99219.69;;;-4.16;76.79
76746;BME280;65671;49.976;20.038;2023-02-28T05:37:30;99224.47;;;-4.23;76.86
76746;BME280;65671;49.976;20.038;2023-02-28T05:39:56;99224.47;;;-4.23;77.56
76746;BME280;65671;49.976;20.038;2023-02-28T05:42:21;99228.41;;;-4.16;76.91
76746;BME280;65671;49.976;20.038;2023-02-28T05:44:47;99237.91;;;-4.45;78.66
76746;BME280;65671;49.976;20.038;2023-02-28T05:47:12;99241.13;;;-4.38;77.41
76746;BME280;65671;49.976;20.038;2023-02-28T05:49:41;99232.91;;;-4.06;76.62
76746;BME280;65671;49.976;20.038;2023-02-28T05:52:07;99240.31;;;-4.03;77.08
76746;BME280;65671;49.976;20.038;2023-02-28T05:54:33;99242.69;;;-4.22;76.50
76746;BME280;65671;49.976;20.038;2023-02-28T05:56:59;99246.13;;;-4.11;77.33
76746;BME280;65671;49.976;20.038;2023-02-28T05:59:24;99246.66;;;-3.84;76.58
76746;BME280;65671;49.976;20.038;2023-02-28T06:01:50;99247.44;;;-3.78;76.13
76746;BME280;65671;49.976;20.038;2023-02-28T06:04:18;99245.56;;;-3.83;76.50
76746;BME280;65671;49.976;20.038;2023-02-28T06:06:48;99245.31;;;-3.81;75.39
76746;BME280;65671;49.976;20.038;2023-02-28T06:09:14;99259.09;;;-3.95;76.43
76746;BME280;65671;49.976;20.038;2023-02-28T06:11:40;99256.19;;;-3.93;77.36
76746;BME280;65671;49.976;20.038;2023-02-28T06:14:07;99258.53;;;-3.76;77.10
76746;BME280;65671;49.976;20.038;2023-02-28T06:16:34;99261.44;;;-3.68;76.83
76746;BME280;65671;49.976;20.038;2023-02-28T06:19:02;99267.22;;;-3.56;76.55
76746;BME280;65671;49.976;20.038;2023-02-28T06:21:29;99269.63;;;-3.59;76.88
76746;BME280;65671;49.976;20.038;2023-02-28T06:23:56;99272.00;;;-3.63;76.15
76746;BME280;65671;49.976;20.038;2023-02-28T06:26:23;99271.19;;;-3.43;75.99
76746;BME280;65671;49.976;20.038;2023-02-28T06:28:49;99272.75;;;-3.42;77.06
76746;BME280;65671;49.976;20.038;2023-02-28T06:31:16;99272.75;;;-3.42;76.47
76746;BME280;65671;49.976;20.038;2023-02-28T06:33:43;99274.88;;;-3.34;74.65
76746;BME280;65671;49.976;20.038;2023-02-28T06:36:11;99271.97;;;-3.43;75.47
76746;BME280;65671;49.976;20.038;2023-02-28T06:38:38;99271.16;;;-3.48;77.42
76746;BME280;65671;49.976;20.038;2023-02-28T06:41:04;99274.84;;;-3.39;76.97
76746;BME280;65671;49.976;20.038;2023-02-28T06:43:33;99272.94;;;-3.13;76.27
76746;BME280;65671;49.976;20.038;2023-02-28T06:46:01;99271.78;;;-2.87;75.11
76746;BME280;65671;49.976;20.038;2023-02-28T06:48:29;99269.63;;;-2.85;74.06
76746;BME280;65671;49.976;20.038;2023-02-28T06:51:05;99274.13;;;-2.86;75.62
76746;BME280;65671;49.976;20.038;2023-02-28T06:53:31;99275.94;;;-2.76;74.36
76746;BME280;65671;49.976;20.038;2023-02-28T06:55:56;99284.16;;;-2.72;75.26
76746;BME280;65671;49.976;20.038;2023-02-28T06:58:22;99286.00;;;-2.73;75.58
76746;BME280;65671;49.976;20.038;2023-02-28T07:00:50;99287.31;;;-2.70;76.56
76746;BME280;65671;49.976;20.038;2023-02-28T07:03:17;99291.53;;;-2.64;76.00
76746;BME280;65671;49.976;20.038;2023-02-28T07:05:43;99291.47;;;-2.54;77.09
76746;BME280;65671;49.976;20.038;2023-02-28T07:08:09;99300.31;;;-2.30;75.80
76746;BME280;65671;49.976;20.038;2023-02-28T07:10:38;99292.34;;;-2.25;75.71
76746;BME280;65671;49.976;20.038;2023-02-28T07:13:05;99300.44;;;-2.06;73.90
76746;BME280;65671;49.976;20.038;2023-02-28T07:15:31;99298.31;;;-2.04;75.39
76746;BME280;65671;49.976;20.038;2023-02-28T07:17:56;99300.25;;;-1.81;74.20
76746;BME280;65671;49.976;20.038;2023-02-28T07:20:22;99299.44;;;-1.82;73.43
76746;BME280;65671;49.976;20.038;2023-02-28T07:22:49;99310.00;;;-1.77;74.47
76746;BME280;65671;49.976;20.038;2023-02-28T07:25:27;99295.91;;;-1.72;75.86
76746;BME280;65671;49.976;20.038;2023-02-28T07:27:54;99315.19;;;-1.61;73.96
76746;BME280;65671;49.976;20.038;2023-02-28T07:30:20;99314.94;;;-1.60;74.80
76746;BME280;65671;49.976;20.038;2023-02-28T07:32:46;99306.91;;;-1.55;73.98
76746;BME280;65671;49.976;20.038;2023-02-28T07:35:11;99312.81;;;-1.34;74.45
76746;BME280;65671;49.976;20.038;2023-02-28T07:37:37;99308.25;;;-1.29;73.73
76746;BME280;65671;49.976;20.038;2023-02-28T07:40:04;99298.19;;;-1.08;72.44
76746;BME280;65671;49.976;20.038;2023-02-28T07:42:32;99304.97;;;-0.97;71.67
76746;BME280;65671;49.976;20.038;2023-02-28T07:44:58;99305.47;;;-0.71;72.12
76746;BME280;65671;49.976;20.038;2023-02-28T07:47:24;99308.88;;;-0.71;70.37
76746;BME280;65671;49.976;20.038;2023-02-28T07:49:50;99298.25;;;-0.71;68.94
76746;BME280;65671;49.976;20.038;2023-02-28T07:52:15;99308.31;;;-0.68;70.71
76746;BME280;65671;49.976;20.038;2023-02-28T07:54:41;99306.75;;;-0.69;69.66
76746;BME280;65671;49.976;20.038;2023-02-28T07:57:06;99308.22;;;-0.39;70.21
76746;BME280;65671;49.976;20.038;2023-02-28T07:59:32;99307.28;;;-0.48;71.42
76746;BME280;65671;49.976;20.038;2023-02-28T08:01:58;99302.94;;;-0.63;70.53
76746;BME280;65671;49.976;20.038;2023-02-28T08:04:24;99301.72;;;-0.51;68.34
76746;BME280;65671;49.976;20.038;2023-02-28T08:06:49;99306.19;;;-0.47;69.85
76746;BME280;65671;49.976;20.038;2023-02-28T08:09:17;99302.19;;;-0.44;66.72
76746;BME280;65671;49.976;20.038;2023-02-28T08:11:43;99299.63;;;-0.73;66.69
76746;BME280;65671;49.976;20.038;2023-02-28T08:14:08;99310.47;;;-0.70;66.23
76746;BME280;65671;49.976;20.038;2023-02-28T08:16:34;99303.91;;;-0.53;63.01
76746;BME280;65671;49.976;20.038;2023-02-28T08:19:00;99298.78;;;-0.69;64.44
76746;BME280;65671;49.976;20.038;2023-02-28T08:21:25;99300.94;;;-0.33;66.56
76746;BME280;65671;49.976;20.038;2023-02-28T08:23:51;99309.16;;;-0.30;63.26
76746;BME280;65671;49.976;20.038;2023-02-28T08:26:17;99306.47;;;-0.11;61.14
76746;BME280;65671;49.976;20.038;2023-02-28T08:28:43;99305.66;;;0.07;62.79
76746;BME280;65671;49.976;20.038;2023-02-28T08:31:14;99302.19;;;0.07;60.93
76746;BME280;65671;49.976;20.038;2023-02-28T08:33:41;99308.09;;;0.22;60.09
76746;BME280;65671;49.976;20.038;2023-02-28T08:36:08;99299.34;;;0.35;61.38
76746;BME280;65671;49.976;20.038;2023-02-28T08:38:34;99272.00;;;-0.03;59.59
76746;BME280;65671;49.976;20.038;2023-02-28T08:41:03;99304.31;;;0.55;61.62
76746;BME280;65671;49.976;20.038;2023-02-28T08:43:31;99310.47;;;0.70;60.87
76746;BME280;65671;49.976;20.038;2023-02-28T08:45:57;99309.38;;;0.71;58.37
76746;BME280;65671;49.976;20.038;2023-02-28T08:48:24;99308.88;;;0.69;60.55
76746;BME280;65671;49.976;20.038;2023-02-28T08:51:02;99302.03;;;0.35;56.52
76746;BME280;65671;49.976;20.038;2023-02-28T08:53:28;99306.75;;;0.38;59.26
76746;BME280;65671;49.976;20.038;2023-02-28T08:56:03;99307.84;;;0.37;59.25
76746;BME280;65671;49.976;20.038;2023-02-28T08:58:29;99300.31;;;0.26;57.25
76746;BME280;65671;49.976;20.038;2023-02-28T09:00:55;99306.91;;;0.74;59.31
76746;BME280;65671;49.976;20.038;2023-02-28T09:03:23;99301.66;;;0.83;57.76
76746;BME280;65671;49.976;20.038;2023-02-28T09:06:08;99310.28;;;1.07;57.14
76746;BME280;65671;49.976;20.038;2023-02-28T09:08:34;99305.06;;;1.02;57.83
76746;BME280;65671;49.976;20.038;2023-02-28T09:10:59;99307.78;;;0.70;55.55
76746;BME280;65671;49.976;20.038;2023-02-28T09:13:25;99309.34;;;0.43;56.70
76746;BME280;65671;49.976;20.038;2023-02-28T09:15:52;99306.22;;;0.69;57.28
76746;BME280;65671;49.976;20.038;2023-02-28T09:18:19;99299.28;;;0.22;58.42
76746;BME280;65671;49.976;20.038;2023-02-28T09:20:45;99300.97;;;0.50;54.55
76746;BME280;65671;49.976;20.038;2023-02-28T09:23:11;99310.25;;;0.66;56.85
76746;BME280;65671;49.976;20.038;2023-02-28T09:25:37;99297.91;;;0.24;54.50
76746;BME280;65671;49.976;20.038;2023-02-28T09:28:03;99309.16;;;0.21;59.81
76746;BME280;65671;49.976;20.038;2023-02-28T09:30:30;99299.94;;;0.32;58.33
76746;BME280;65671;49.976;20.038;2023-02-28T09:32:55;99303.81;;;0.21;58.17
76746;BME280;65671;49.976;20.038;2023-02-28T09:35:22;99310.59;;;0.32;59.02
76746;BME280;65671;49.976;20.038;2023-02-28T09:37:52;99304.41;;;0.50;57.75
76746;BME280;65671;49.976;20.038;2023-02-28T09:40:23;99305.56;;;0.44;58.32
76746;BME280;65671;49.976;20.038;2023-02-28T09:42:53;99306.56;;;0.35;58.52
76746;BME280;65671;49.976;20.038;2023-02-28T09:45:32;99307.31;;;0.68;59.24
76746;BME280;65671;49.976;20.038;2023-02-28T09:48:04;99304.34;;;0.69;55.63
76746;BME280;65671;49.976;20.038;2023-02-28T09:50:53;99309.78;;;0.78;58.69
76746;BME280;65671;49.976;20.038;2023-02-28T09:53:33;99312.22;;;0.47;59.35
76746;BME280;65671;49.976;20.038;2023-02-28T09:56:58;99315.09;;;0.64;55.07
76746;BME280;65671;49.976;20.038;2023-02-28T09:59:40;99285.38;;;0.57;53.22
76746;BME280;65671;49.976;20.038;2023-02-28T10:04:59;99301.19;;;0.81;56.72
76746;BME280;65671;49.976;20.038;2023-02-28T10:08:00;99310.34;;;0.75;58.63
76746;BME280;65671;49.976;20.038;2023-02-28T10:10:36;99315.81;;;0.97;58.76
76746;BME280;65671;49.976;20.038;2023-02-28T10:13:07;99311.44;;;0.60;58.04
76746;BME280;65671;49.976;20.038;2023-02-28T10:15:37;99311.47;;;0.74;56.54
76746;BME280;65671;49.976;20.038;2023-02-28T10:18:05;99304.53;;;0.73;55.08
76746;BME280;65671;49.976;20.038;2023-02-28T10:20:38;99298.53;;;0.81;57.79
76746;BME280;65671;49.976;20.038;2023-02-28T10:25:38;99293.97;;;0.95;58.53
76746;BME280;65671;49.976;20.038;2023-02-28T10:28:09;99295.06;;;1.07;58.43
76746;BME280;65671;49.976;20.038;2023-02-28T10:30:38;99289.25;;;1.05;59.13
76746;BME280;65671;49.976;20.038;2023-02-28T10:33:05;99296.13;;;0.66;54.51
76746;BME280;65671;49.976;20.038;2023-02-28T10:35:30;99294.66;;;0.87;55.64
76746;BME280;65671;49.976;20.038;2023-02-28T10:38:00;99285.69;;;0.96;55.92
76746;BME280;65671;49.976;20.038;2023-02-28T10:40:35;99288.16;;;1.06;57.85
76746;BME280;65671;49.976;20.038;2023-02-28T10:43:04;99283.03;;;0.96;54.53
76746;BME280;65671;49.976;20.038;2023-02-28T10:45:32;99276.31;;;0.99;54.39
76746;BME280;65671;49.976;20.038;2023-02-28T10:56:12;99267.13;;;1.05;53.67
76746;BME280;65671;49.976;20.038;2023-02-28T10:58:52;99255.09;;;0.94;55.43
76746;BME280;65671;49.976;20.038;2023-02-28T11:01:24;99257.09;;;1.24;58.31
76746;BME280;65671;49.976;20.038;2023-02-28T11:03:53;99259.31;;;0.81;57.33
76746;BME280;65671;49.976;20.038;2023-02-28T11:06:23;99258.44;;;0.72;57.74
76746;BME280;65671;49.976;20.038;2023-02-28T11:08:53;99255.66;;;0.77;58.36
76746;BME280;65671;49.976;20.038;2023-02-28T11:11:22;99235.84;;;0.56;56.58
76746;BME280;65671;49.976;20.038;2023-02-28T11:13:52;99248.25;;;0.61;56.19
76746;BME280;65671;49.976;20.038;2023-02-28T11:16:19;99249.06;;;0.75;54.36
76746;BME280;65671;49.976;20.038;2023-02-28T11:18:50;99236.59;;;0.84;55.41
76746;BME280;65671;49.976;20.038;2023-02-28T11:21:29;99244.38;;;1.21;57.25
76746;BME280;65671;49.976;20.038;2023-02-28T11:24:14;99239.19;;;1.02;58.77
76746;BME280;65671;49.976;20.038;2023-02-28T11:26:46;99240.34;;;1.10;57.52
76746;BME280;65671;49.976;20.038;2023-02-28T11:29:31;99242.72;;;1.11;55.28
76746;BME280;65671;49.976;20.038;2023-02-28T11:32:04;99242.59;;;1.17;56.19
76746;BME280;65671;49.976;20.038;2023-02-28T11:34:31;99233.97;;;1.33;55.16
76746;BME280;65671;49.976;20.038;2023-02-28T11:36:58;99232.63;;;1.22;55.23
76746;BME280;65671;49.976;20.038;2023-02-28T11:39:25;99232.41;;;1.19;56.70
76746;BME280;65671;49.976;20.038;2023-02-28T11:42:01;99239.31;;;1.33;57.08
76746;BME280;65671;49.976;20.038;2023-02-28T11:47:35;99230.94;;;1.26;54.21
76746;BME280;65671;49.976;20.038;2023-02-28T11:52:56;99223.34;;;1.20;54.41
76746;BME280;65671;49.976;20.038;2023-02-28T12:07:07;99220.94;;;1.32;58.99
76746;BME280;65671;49.976;20.038;2023-02-28T12:11:56;99210.19;;;1.59;56.19
76746;BME280;65671;49.976;20.038;2023-02-28T12:14:47;99209.41;;;1.58;54.84
76746;BME280;65671;49.976;20.038;2023-02-28T12:20:33;99212.31;;;1.71;53.71
76746;BME280;65671;49.976;20.038;2023-02-28T12:28:30;99212.53;;;1.60;53.96
76746;BME280;65671;49.976;20.038;2023-02-28T12:31:03;99209.25;;;1.63;56.03
76746;BME280;65671;49.976;20.038;2023-02-28T12:33:34;99217.22;;;1.55;54.03
76746;BME280;65671;49.976;20.038;2023-02-28T12:36:07;99210.22;;;1.45;53.37
76746;BME280;65671;49.976;20.038;2023-02-28T12:38:45;99195.72;;;1.60;54.37
76746;BME280;65671;49.976;20.038;2023-02-28T12:41:16;99203.63;;;1.65;53.16
76746;BME280;65671;49.976;20.038;2023-02-28T12:43:49;99218.00;;;1.55;56.79
76746;BME280;65671;49.976;20.038;2023-02-28T12:46:21;99215.28;;;1.69;55.89
76746;BME280;65671;49.976;20.038;2023-02-28T12:49:02;99216.38;;;1.90;53.34
76746;BME280;65671;49.976;20.038;2023-02-28T12:51:30;99216.50;;;2.16;53.16
76746;BME280;65671;49.976;20.038;2023-02-28T12:56:51;99209.50;;;1.76;54.92
76746;BME280;65671;49.976;20.038;2023-02-28T13:10:44;99204.59;;;1.69;54.73
76746;BME280;65671;49.976;20.038;2023-02-28T13:13:18;99203.38;;;1.75;54.21
76746;BME280;65671;49.976;20.038;2023-02-28T13:21:01;99203.09;;;1.77;57.35
76746;BME280;65671;49.976;20.038;2023-02-28T13:34:31;99184.59;;;2.11;55.43
76746;BME280;65671;49.976;20.038;2023-02-28T13:47:40;99183.50;;;2.12;54.70
76746;BME280;65671;49.976;20.038;2023-02-28T13:53:48;99184.50;;;1.94;55.54
76746;BME280;65671;49.976;20.038;2023-02-28T13:59:02;99161.38;;;2.20;55.98
76746;BME280;65671;49.976;20.038;2023-02-28T14:06:36;99166.41;;;1.91;56.02
76746;BME280;65671;49.976;20.038;2023-02-28T14:09:28;99160.59;;;1.89;55.96
76746;BME280;65671;49.976;20.038;2023-02-28T14:11:53;99160.47;;;1.72;56.69
76746;BME280;65671;49.976;20.038;2023-02-28T14:17:12;99156.28;;;1.79;55.07
76746;BME280;65671;49.976;20.038;2023-02-28T14:19:44;99146.03;;;1.95;56.30
76746;BME280;65671;49.976;20.038;2023-02-28T14:22:54;99147.88;;;1.86;55.38
76746;BME280;65671;49.976;20.038;2023-02-28T14:31:14;99149.38;;;1.78;56.73
76746;BME280;65671;49.976;20.038;2023-02-28T14:37:02;99150.78;;;1.76;56.20
76746;BME280;65671;49.976;20.038;2023-02-28T14:39:28;99157.63;;;1.90;56.13
76746;BME280;65671;49.976;20.038;2023-02-28T14:41:57;99155.13;;;1.72;56.90
76746;BME280;65671;49.976;20.038;2023-02-28T14:44:28;99150.56;;;1.41;56.45
76746;BME280;65671;49.976;20.038;2023-02-28T14:52:14;99158.34;;;1.60;57.85
76746;BME280;65671;49.976;20.038;2023-02-28T14:54:40;99157.94;;;1.66;56.61
76746;BME280;65671;49.976;20.038;2023-02-28T14:57:19;99160.75;;;1.61;57.40
76746;BME280;65671;49.976;20.038;2023-02-28T14:59:45;99163.22;;;1.58;58.53
76746;BME280;65671;49.976;20.038;2023-02-28T15:02:21;99163.75;;;1.91;58.64
76746;BME280;65671;49.976;20.038;2023-02-28T15:05:01;99158.84;;;2.15;56.53
76746;BME280;65671;49.976;20.038;2023-02-28T15:07:27;99158.44;;;2.30;55.03
76746;BME280;65671;49.976;20.038;2023-02-28T15:10:23;99153.75;;;2.05;55.06
76746;BME280;65671;49.976;20.038;2023-02-28T15:13:01;99156.34;;;1.65;57.03
76746;BME280;65671;49.976;20.038;2023-02-28T15:17:59;99155.34;;;2.06;56.99
76746;BME280;65671;49.976;20.038;2023-02-28T15:20:27;99154.19;;;2.29;54.94
76746;BME280;65671;49.976;20.038;2023-02-28T15:22:55;99155.91;;;2.81;53.60
76746;BME280;65671;49.976;20.038;2023-02-28T15:25:22;99151.84;;;3.01;53.53
76746;BME280;65671;49.976;20.038;2023-02-28T15:27:53;99148.53;;;2.87;54.63
76746;BME280;65671;49.976;20.038;2023-02-28T15:30:27;99149.16;;;2.93;52.91
76746;BME280;65671;49.976;20.038;2023-02-28T15:33:03;99148.22;;;2.71;54.37
76746;BME280;65671;49.976;20.038;2023-02-28T15:35:31;99153.47;;;2.46;54.17
76746;BME280;65671;49.976;20.038;2023-02-28T15:38:17;99149.03;;;2.98;52.81
76746;BME280;65671;49.976;20.038;2023-02-28T15:40:45;99149.38;;;3.30;53.57
76746;BME280;65671;49.976;20.038;2023-02-28T15:43:27;99153.75;;;3.01;52.72